createdAt,value
2022-07-26T00:03:56.686Z,98256.69
2022-07-26T00:08:10.783Z,98248.59
2022-07-26T00:12:12.950Z,98246.75
2022-07-26T00:16:14.984Z,98241.72
2022-07-26T00:20:17.053Z,98242.50
2022-07-26T00:24:20.143Z,98238.00
2022-07-26T00:28:22.054Z,98238.19
2022-07-26T00:32:24.598Z,98236.69
2022-07-26T00:36:28.716Z,98237.22
2022-07-26T00:40:30.716Z,98227.56
2022-07-26T00:44:38.015Z,98233.00
2022-07-26T00:48:40.142Z,98228.69
2022-07-26T00:52:42.921Z,98221.75
2022-07-26T00:56:45.688Z,98220.81
2022-07-26T01:00:48.073Z,98215.81
2022-07-26T01:04:50.026Z,98199.28
2022-07-26T01:08:51.984Z,98190.69
2022-07-26T01:12:54.287Z,98189.81
2022-07-26T01:16:56.364Z,98175.72
2022-07-26T01:21:01.427Z,98176.22
2022-07-26T01:25:16.167Z,98185.34
2022-07-26T01:29:18.055Z,98183.69
2022-07-26T01:33:19.850Z,98203.38
2022-07-26T01:37:21.749Z,98204.97
2022-07-26T01:41:37.620Z,98198.38
2022-07-26T01:45:40.352Z,98187.16
2022-07-26T01:49:44.342Z,98172.06
2022-07-26T01:53:46.536Z,98167.31
2022-07-26T01:57:48.338Z,98164.13
2022-07-26T02:01:50.554Z,98168.28
2022-07-26T02:05:52.564Z,98150.44
2022-07-26T02:09:54.925Z,98136.19
2022-07-26T02:13:56.986Z,98138.47
2022-07-26T02:17:58.832Z,98134.53
2022-07-26T02:22:00.678Z,98126.31
2022-07-26T02:26:02.802Z,98127.69
2022-07-26T02:30:04.938Z,98130.22
2022-07-26T02:34:07.168Z,98140.16
2022-07-26T02:38:10.649Z,98132.25
2022-07-26T02:42:13.547Z,98152.34
2022-07-26T02:46:15.606Z,98144.91
2022-07-26T02:50:22.058Z,98153.59
2022-07-26T02:54:23.953Z,98147.28
2022-07-26T02:58:27.034Z,98153.75
2022-07-26T03:02:33.115Z,98161.88
2022-07-26T03:06:35.090Z,98158.66
2022-07-26T03:10:37.120Z,98160.72
2022-07-26T03:14:39.218Z,98165.53
2022-07-26T03:18:41.059Z,98151.75
2022-07-26T03:22:43.049Z,98164.75
2022-07-26T03:26:47.490Z,98155.53
2022-07-26T03:30:49.360Z,98150.66
2022-07-26T03:34:51.348Z,98149.00
2022-07-26T03:38:53.282Z,98144.09
2022-07-26T03:42:55.134Z,98140.00
2022-07-26T03:46:57.032Z,98133.00
2022-07-26T03:50:58.926Z,98136.38
2022-07-26T03:55:00.950Z,98129.09
2022-07-26T03:59:04.653Z,98127.81
2022-07-26T04:03:06.724Z,98140.09
2022-07-26T04:07:08.625Z,98145.28
2022-07-26T04:11:12.177Z,98158.59
2022-07-26T04:15:18.516Z,98158.69
2022-07-26T04:19:20.331Z,98147.66
2022-07-26T04:23:23.267Z,98149.94
2022-07-26T04:27:25.409Z,98159.78
2022-07-26T04:31:27.374Z,98153.88
2022-07-26T04:35:36.798Z,98152.78
2022-07-26T04:39:38.622Z,98151.34
2022-07-26T04:43:40.591Z,98153.47
2022-07-26T04:47:43.488Z,98154.34
2022-07-26T04:51:45.413Z,98159.47
2022-07-26T04:55:47.921Z,98162.41
2022-07-26T04:59:58.375Z,98169.56
2022-07-26T05:04:13.184Z,98176.44
2022-07-26T05:08:16.635Z,98176.78
2022-07-26T05:12:19.142Z,98182.91
2022-07-26T05:20:46.692Z,98191.78
2022-07-26T05:24:48.591Z,98196.22
2022-07-26T05:28:50.475Z,98187.22
2022-07-26T05:32:52.328Z,98201.31
2022-07-26T05:36:54.255Z,98196.94
2022-07-26T05:40:56.075Z,98194.81
2022-07-26T05:44:57.959Z,98194.16
2022-07-26T05:48:59.865Z,98193.03
2022-07-26T05:53:01.959Z,98201.91
2022-07-26T05:57:03.998Z,98191.47
2022-07-26T06:01:05.983Z,98197.78
2022-07-26T06:05:10.928Z,98202.84
2022-07-26T06:09:12.887Z,98193.56
2022-07-26T06:13:15.099Z,98192.94
2022-07-26T06:17:17.529Z,98196.06
2022-07-26T06:21:19.543Z,98184.75
2022-07-26T06:25:21.345Z,98189.88
2022-07-26T06:29:24.472Z,98179.03
2022-07-26T06:33:36.478Z,98181.06
2022-07-26T06:37:38.470Z,98187.00
2022-07-26T06:41:40.438Z,98188.69
2022-07-26T06:45:42.269Z,98189.66
2022-07-26T06:49:44.847Z,98187.19
2022-07-26T06:53:46.747Z,98189.34
2022-07-26T06:57:50.290Z,98197.03
2022-07-26T07:01:59.620Z,98183.91
2022-07-26T07:06:02.474Z,98185.22
2022-07-26T07:10:05.145Z,98184.50
2022-07-26T07:14:08.624Z,98175.66
2022-07-26T07:18:11.032Z,98169.22
2022-07-26T07:22:13.017Z,98162.94
2022-07-26T07:26:15.084Z,98168.78
2022-07-26T07:30:17.500Z,98160.78
2022-07-26T07:34:22.771Z,98154.63
2022-07-26T07:38:28.634Z,98156.31
2022-07-26T07:42:32.196Z,98152.94
2022-07-26T07:46:34.356Z,98153.41
2022-07-26T07:50:36.500Z,98146.97
2022-07-26T07:54:38.570Z,98152.53
2022-07-26T07:58:40.607Z,98153.81
2022-07-26T08:02:42.856Z,98146.91
2022-07-26T08:06:50.462Z,98150.25
2022-07-26T08:10:53.552Z,98155.38
2022-07-26T08:14:55.494Z,98156.25
2022-07-26T08:18:58.470Z,98154.66
2022-07-26T08:23:00.540Z,98150.75
2022-07-26T08:27:02.602Z,98142.94
2022-07-26T08:31:05.182Z,98148.38
2022-07-26T08:35:17.318Z,98146.06
2022-07-26T08:39:20.402Z,98143.69
2022-07-26T08:43:22.603Z,98148.03
2022-07-26T08:47:39.993Z,98142.94
2022-07-26T08:51:47.031Z,98137.44
2022-07-26T08:56:06.422Z,98141.72
2022-07-26T09:00:15.447Z,98144.47
2022-07-26T09:04:30.597Z,98134.72
2022-07-26T09:08:33.465Z,98136.66
2022-07-26T09:12:35.367Z,98145.28
2022-07-26T09:16:40.098Z,98138.22
2022-07-26T09:20:46.437Z,98147.25
2022-07-26T09:24:49.232Z,98128.84
2022-07-26T09:29:04.919Z,98130.00
2022-07-26T09:33:07.892Z,98128.31
2022-07-26T09:37:12.432Z,98138.03
2022-07-26T09:41:20.549Z,98139.31
2022-07-26T09:45:22.868Z,98136.56
2022-07-26T09:49:30.934Z,98126.66
2022-07-26T09:53:44.473Z,98130.56
2022-07-26T09:57:46.445Z,98123.81
2022-07-26T10:01:49.028Z,98130.78
2022-07-26T10:05:52.116Z,98130.06
2022-07-26T10:10:20.649Z,98115.91
2022-07-26T10:14:34.792Z,98122.03
2022-07-26T10:18:36.744Z,98107.19
2022-07-26T10:22:40.408Z,98113.97
2022-07-26T10:26:45.691Z,98117.06
2022-07-26T10:30:47.577Z,98112.34
2022-07-26T10:34:49.564Z,98105.41
2022-07-26T10:38:58.642Z,98101.38
2022-07-26T10:47:36.049Z,98096.38
2022-07-26T10:51:39.286Z,98092.53
2022-07-26T10:55:48.655Z,98095.38
2022-07-26T10:59:56.083Z,98088.91
2022-07-26T11:03:59.186Z,98080.50
2022-07-26T11:08:05.367Z,98077.56
2022-07-26T11:12:20.560Z,98078.72
2022-07-26T11:16:23.442Z,98087.41
2022-07-26T11:20:29.754Z,98083.75
2022-07-26T11:24:31.962Z,98070.63
2022-07-26T11:29:00.225Z,98056.66
2022-07-26T11:33:02.690Z,98059.53
2022-07-26T11:37:05.072Z,98061.97
2022-07-26T11:41:07.020Z,98053.69
2022-07-26T11:45:12.084Z,98054.56
2022-07-26T11:49:41.509Z,98049.97
2022-07-26T11:53:46.560Z,98041.25
2022-07-26T11:57:49.166Z,98044.16
2022-07-26T12:01:52.330Z,98040.00
2022-07-26T12:06:06.688Z,98037.34
2022-07-26T12:10:08.651Z,98039.09
2022-07-26T12:14:13.657Z,98029.03
2022-07-26T12:18:27.168Z,98026.19
2022-07-26T12:22:29.031Z,98027.50
2022-07-26T12:26:31.137Z,98014.94
2022-07-26T12:30:36.269Z,98005.47
2022-07-26T12:34:38.837Z,98005.78
2022-07-26T12:38:40.781Z,97991.69
2022-07-26T12:42:43.929Z,97993.97
2022-07-26T12:46:46.019Z,97995.25
2022-07-26T12:50:48.116Z,97999.84
2022-07-26T12:54:51.023Z,97982.28
2022-07-26T12:59:02.557Z,97982.06
2022-07-26T13:03:04.487Z,97971.13
2022-07-26T13:07:06.604Z,97964.34
2022-07-26T13:11:08.544Z,97958.91
2022-07-26T13:15:10.588Z,97958.19
2022-07-26T13:19:12.589Z,97947.91
2022-07-26T13:23:15.871Z,97951.22
2022-07-26T13:27:23.836Z,97939.59
2022-07-26T13:31:25.786Z,97941.59
2022-07-26T13:35:28.192Z,97931.72
2022-07-26T13:39:31.832Z,97927.00
2022-07-26T13:43:35.385Z,97928.03
2022-07-26T13:47:37.383Z,97922.06
2022-07-26T13:51:57.630Z,97917.06
2022-07-26T13:55:59.549Z,97916.34
2022-07-26T14:00:01.472Z,97914.66
2022-07-26T14:04:08.325Z,97910.81
2022-07-26T14:08:10.762Z,97910.34
2022-07-26T14:12:13.596Z,97909.25
2022-07-26T14:16:15.549Z,97909.97
2022-07-26T14:20:17.560Z,97897.75
2022-07-26T14:24:20.849Z,97906.50
2022-07-26T14:28:23.006Z,97907.03
2022-07-26T14:32:25.059Z,97900.28
2022-07-26T14:36:27.029Z,97887.66
2022-07-26T14:40:30.984Z,97883.00
2022-07-26T14:44:34.070Z,97876.97
2022-07-26T14:48:53.924Z,97880.31
2022-07-26T14:52:56.638Z,97867.56
2022-07-26T14:56:58.654Z,97869.22
2022-07-26T15:01:00.572Z,97867.69
2022-07-26T15:05:02.501Z,97860.94
2022-07-26T15:09:05.539Z,97853.88
2022-07-26T15:13:07.642Z,97848.78
2022-07-26T15:17:09.550Z,97849.75
2022-07-26T15:21:11.494Z,97845.47
2022-07-26T15:25:13.600Z,97828.38
2022-07-26T15:29:15.853Z,97830.34
2022-07-26T15:33:20.097Z,97841.00
2022-07-26T15:37:22.268Z,97835.56
2022-07-26T15:41:24.423Z,97822.91
2022-07-26T15:45:26.399Z,97825.06
2022-07-26T15:49:28.332Z,97819.56
2022-07-26T15:53:31.379Z,97826.91
2022-07-26T15:57:33.244Z,97837.75
2022-07-26T16:01:35.954Z,97833.72
2022-07-26T16:05:37.972Z,97834.06
2022-07-26T16:09:39.871Z,97827.88
2022-07-26T16:13:41.737Z,97823.31
2022-07-26T16:17:46.800Z,97826.34
2022-07-26T16:21:48.869Z,97816.78
2022-07-26T16:25:51.120Z,97816.94
2022-07-26T16:29:53.644Z,97816.94
2022-07-26T16:33:55.716Z,97809.56
2022-07-26T16:37:57.664Z,97812.72
2022-07-26T16:42:04.572Z,97812.25
2022-07-26T16:46:08.561Z,97808.59
2022-07-26T16:50:10.590Z,97807.56
2022-07-26T16:54:12.519Z,97806.47
2022-07-26T16:58:14.419Z,97795.59
2022-07-26T17:02:16.502Z,97793.97
2022-07-26T17:06:20.549Z,97797.38
2022-07-26T17:10:22.451Z,97792.28
2022-07-26T17:14:24.454Z,97792.69
2022-07-26T17:18:26.458Z,97785.41
2022-07-26T17:22:28.541Z,97796.25
2022-07-26T17:26:30.545Z,97808.50
2022-07-26T17:30:32.542Z,97802.81
2022-07-26T17:34:34.856Z,97803.91
2022-07-26T17:38:36.754Z,97804.47
2022-07-26T17:42:39.933Z,97795.78
2022-07-26T17:46:42.161Z,97808.22
2022-07-26T17:50:44.291Z,97814.00
2022-07-26T17:54:46.218Z,97815.25
2022-07-26T17:58:48.103Z,97820.25
2022-07-26T18:02:50.182Z,97823.28
2022-07-26T18:06:52.058Z,97838.25
2022-07-26T18:10:54.710Z,97840.69
2022-07-26T18:14:56.877Z,97844.53
2022-07-26T18:18:59.493Z,97846.44
2022-07-26T18:23:02.738Z,97858.41
2022-07-26T18:27:04.640Z,97865.56
2022-07-26T18:31:06.540Z,97863.88
2022-07-26T18:35:12.742Z,97859.00
2022-07-26T18:39:14.840Z,97860.41
2022-07-26T18:43:19.918Z,97867.06
2022-07-26T18:47:21.974Z,97879.63
2022-07-26T18:51:23.910Z,97883.09
2022-07-26T18:55:28.740Z,97885.97
2022-07-26T18:59:31.187Z,97895.06
2022-07-26T19:03:34.876Z,97908.88
2022-07-26T19:07:38.252Z,97915.47
2022-07-26T19:11:40.380Z,97920.69
2022-07-26T19:15:42.470Z,97932.59
2022-07-26T19:19:44.460Z,97943.91
2022-07-26T19:23:46.394Z,97947.56
2022-07-26T19:27:48.310Z,97955.44
2022-07-26T19:31:50.354Z,97957.47
2022-07-26T19:35:53.512Z,97967.66
2022-07-26T19:40:03.467Z,97983.75
2022-07-26T19:44:05.501Z,97999.47
2022-07-26T19:48:07.890Z,98001.88
2022-07-26T19:52:11.890Z,98005.88
2022-07-26T19:56:14.311Z,98005.13
2022-07-26T20:00:17.734Z,98002.06
2022-07-26T20:04:19.854Z,98010.63
2022-07-26T20:08:21.833Z,98017.72
2022-07-26T20:12:26.060Z,98013.03
2022-07-26T20:16:28.415Z,98013.44
2022-07-26T20:20:30.550Z,98015.78
2022-07-26T20:24:32.976Z,98014.22
2022-07-26T20:28:34.976Z,98008.34
2022-07-26T20:32:36.979Z,98008.34
2022-07-26T20:36:39.167Z,98009.13
2022-07-26T20:40:41.155Z,98008.34
2022-07-26T20:44:44.537Z,98012.22
2022-07-26T20:48:46.625Z,98013.00
2022-07-26T20:52:48.812Z,98016.88
2022-07-26T20:56:50.755Z,98022.31
2022-07-26T21:00:52.999Z,98009.81
2022-07-26T21:04:55.224Z,98023.88
2022-07-26T21:08:57.936Z,98027.72
2022-07-26T21:13:01.155Z,98030.38
2022-07-26T21:17:06.623Z,98035.69
2022-07-26T21:21:11.265Z,98031.31
2022-07-26T21:25:13.457Z,98031.72
2022-07-26T21:29:15.813Z,98028.56
2022-07-26T21:33:18.064Z,98042.31
2022-07-26T21:37:19.942Z,98039.13
2022-07-26T21:41:21.804Z,98046.34
2022-07-26T21:45:23.776Z,98045.16
2022-07-26T21:49:25.739Z,98046.13
2022-07-26T21:53:27.642Z,98043.00
2022-07-26T21:57:29.483Z,98046.41
2022-07-26T22:01:33.806Z,98041.38
2022-07-26T22:05:55.747Z,98051.06
2022-07-26T22:10:17.751Z,98044.06
2022-07-26T22:14:23.475Z,98046.69
2022-07-26T22:18:32.057Z,98052.38
2022-07-26T22:22:34.276Z,98029.00
2022-07-26T22:26:36.375Z,98029.91
2022-07-26T22:30:39.166Z,98048.19
2022-07-26T22:34:40.998Z,98051.25
2022-07-26T22:38:44.259Z,98046.28
2022-07-26T22:43:09.230Z,98048.38
2022-07-26T22:47:11.245Z,98063.56
2022-07-26T22:51:13.108Z,98065.41
2022-07-26T22:55:15.965Z,98067.84
2022-07-26T22:59:17.817Z,98074.41
2022-07-26T23:03:22.173Z,98072.66
2022-07-26T23:07:25.448Z,98076.47
2022-07-26T23:11:28.617Z,98082.91
2022-07-26T23:15:33.645Z,98081.00
2022-07-26T23:19:35.860Z,98086.66
2022-07-26T23:23:37.869Z,98087.13
2022-07-26T23:27:39.972Z,98081.19
2022-07-26T23:31:42.450Z,98061.56
2022-07-26T23:35:44.364Z,98068.00
2022-07-26T23:39:46.205Z,98085.84
2022-07-26T23:43:48.184Z,98075.16
2022-07-26T23:47:50.054Z,98070.94
2022-07-26T23:51:52.263Z,98064.72
2022-07-26T23:55:54.318Z,98073.75
2022-07-26T23:59:56.223Z,98060.78
